Time;durP1;ratioP1;P1;durP2;ratioP2;P2;SDS_P1;SDS_P2;PMS_P1;PMS_P2;Temp;Humidity;BMP_temperature;BMP_pressure;BME280_temperature;BME280_humidity;BME280_pressure;Samples;Min_cycle;Max_cycle;Signal;HPM_P1;HPM_P2
2023/08/04 00:00:15;;;;;;;18.42;6.15;;;;;;;14.20;100.00;100870.09;5073233;28;20044;-77
2023/08/04 00:02:41;;;;;;;20.25;5.85;;;;;;;14.20;100.00;100870.09;5070333;28;20098;-76
2023/08/04 00:05:07;;;;;;;16.70;5.38;;;;;;;14.18;100.00;100874.78;5034784;28;1088440;-77
2023/08/04 00:07:33;;;;;;;23.80;6.28;;;;;;;14.17;100.00;100873.06;5075916;28;20121;-78
2023/08/04 00:09:59;;;;;;;19.77;5.63;;;;;;;14.14;100.00;100867.94;5075675;28;20021;-78
2023/08/04 00:12:24;;;;;;;20.55;6.20;;;;;;;14.09;100.00;100873.75;5074549;28;20029;-77
2023/08/04 00:14:50;;;;;;;19.98;6.57;;;;;;;14.08;100.00;100876.59;5074465;28;20076;-77
2023/08/04 00:17:16;;;;;;;23.13;6.53;;;;;;;14.04;100.00;100875.13;5075613;28;20047;-78
2023/08/04 00:19:42;;;;;;;19.35;5.85;;;;;;;14.01;100.00;100883.53;5070334;28;20039;-77
2023/08/04 00:22:08;;;;;;;23.48;6.50;;;;;;;14.02;100.00;100879.84;5071130;28;20025;-78
2023/08/04 00:24:34;;;;;;;17.20;6.40;;;;;;;14.02;100.00;100880.69;5073790;28;20063;-77
2023/08/04 00:27:00;;;;;;;20.23;6.30;;;;;;;14.04;100.00;100885.94;5074948;28;20035;-77
2023/08/04 00:29:26;;;;;;;20.45;7.20;;;;;;;13.98;100.00;100885.50;5073327;28;20039;-78
2023/08/04 00:31:51;;;;;;;19.05;6.72;;;;;;;14.05;100.00;100876.88;5072949;28;20056;-77
2023/08/04 00:34:17;;;;;;;19.42;6.13;;;;;;;14.03;100.00;100878.84;5073476;28;20098;-77
2023/08/04 00:36:44;;;;;;;19.40;6.10;;;;;;;14.00;100.00;100888.06;5068482;28;20080;-77
2023/08/04 00:39:10;;;;;;;25.13;7.00;;;;;;;14.04;100.00;100891.34;5070343;28;20035;-77
2023/08/04 00:41:35;;;;;;;18.00;6.35;;;;;;;13.99;100.00;100889.91;5067795;28;20053;-78
2023/08/04 00:44:01;;;;;;;22.77;6.40;;;;;;;13.99;100.00;100895.31;5072261;28;20251;-76
2023/08/04 00:46:27;;;;;;;21.95;6.95;;;;;;;14.03;100.00;100898.63;5068704;28;20032;-77
2023/08/04 00:48:52;;;;;;;20.63;6.90;;;;;;;14.03;100.00;100892.38;5073759;28;20211;-78
2023/08/04 00:51:18;;;;;;;20.27;7.13;;;;;;;14.00;100.00;100896.19;5070926;28;20519;-77
2023/08/04 00:53:44;;;;;;;25.42;7.82;;;;;;;13.97;100.00;100896.47;5071320;28;20032;-76
2023/08/04 00:56:09;;;;;;;17.98;6.68;;;;;;;13.94;100.00;100894.03;5070869;28;20036;-77
2023/08/04 00:58:34;;;;;;;20.50;6.78;;;;;;;13.94;100.00;100905.69;5071562;28;20053;-77
2023/08/04 01:01:00;;;;;;;21.67;6.15;;;;;;;13.94;100.00;100894.88;5065715;28;20036;-78
2023/08/04 01:03:27;;;;;;;26.52;8.02;;;;;;;13.91;100.00;100905.94;5050655;28;20032;-78
2023/08/04 01:05:55;;;;;;;23.52;6.65;;;;;;;13.93;100.00;100911.22;5050033;28;20049;-78
2023/08/04 01:08:29;;;;;;;20.20;6.90;;;;;;;13.86;100.00;100910.88;5047220;28;20530;-79
2023/08/04 01:11:03;;;;;;;21.63;6.32;;;;;;;13.87;100.00;100917.16;5049187;28;20033;-79
2023/08/04 01:13:29;;;;;;;23.88;6.65;;;;;;;13.80;100.00;100911.41;5042752;28;20392;-79
2023/08/04 01:15:56;;;;;;;21.45;6.88;;;;;;;13.80;100.00;100908.72;5051093;28;20115;-79
2023/08/04 01:18:22;;;;;;;21.48;6.60;;;;;;;13.76;100.00;100907.25;5050303;28;20033;-78
2023/08/04 01:20:48;;;;;;;22.80;7.28;;;;;;;13.71;100.00;100923.88;5050508;28;20025;-78
2023/08/04 01:23:14;;;;;;;22.13;6.75;;;;;;;13.71;100.00;100913.06;5050077;28;20534;-78
2023/08/04 01:25:40;;;;;;;21.35;6.40;;;;;;;13.70;100.00;100915.88;5049112;28;20034;-78
2023/08/04 01:28:11;;;;;;;19.77;6.70;;;;;;;13.67;100.00;100917.00;5048068;28;20031;-78
2023/08/04 01:30:38;;;;;;;18.92;6.38;;;;;;;13.70;100.00;100915.88;5050060;28;20119;-78
2023/08/04 01:33:03;;;;;;;21.92;7.75;;;;;;;13.72;100.00;100922.00;5049777;28;20040;-77
2023/08/04 01:35:29;;;;;;;20.92;7.22;;;;;;;13.71;100.00;100923.00;5049731;28;20071;-77
2023/08/04 01:37:55;;;;;;;18.92;6.30;;;;;;;13.73;100.00;100926.44;5050338;28;20038;-78
2023/08/04 01:40:20;;;;;;;23.50;7.60;;;;;;;13.73;100.00;100924.56;5049825;28;20029;-78
2023/08/04 01:42:46;;;;;;;20.10;7.05;;;;;;;13.79;100.00;100934.00;5048399;28;20033;-78
2023/08/04 01:45:11;;;;;;;17.38;6.18;;;;;;;13.79;100.00;100937.59;5048614;28;20029;-78
2023/08/04 01:47:38;;;;;;;22.17;7.38;;;;;;;13.80;100.00;100938.44;5050631;28;20036;-78
2023/08/04 01:50:08;;;;;;;23.60;7.32;;;;;;;13.83;100.00;100935.47;5049120;28;20041;-78
2023/08/04 01:52:33;;;;;;;;;;;;;;;13.85;100.00;100930.81;5049493;28;20032;-78
2023/08/04 01:54:59;;;;;;;22.48;7.07;;;;;;;13.87;100.00;100936.91;5048471;28;19912;-78
2023/08/04 01:57:24;;;;;;;19.17;6.85;;;;;;;13.88;100.00;100941.34;5049063;28;20029;-78
2023/08/04 01:59:49;;;;;;;20.73;6.88;;;;;;;13.89;100.00;100937.63;5050107;28;20077;-78
2023/08/04 02:02:15;;;;;;;20.20;7.45;;;;;;;13.89;100.00;100940.31;5050284;28;20086;-78
2023/08/04 02:04:40;;;;;;;25.25;8.52;;;;;;;13.92;100.00;100941.91;5043957;28;20136;-78
2023/08/04 02:07:05;;;;;;;21.50;7.13;;;;;;;13.93;100.00;100939.09;5044068;28;20032;-77
2023/08/04 02:09:32;;;;;;;20.15;7.05;;;;;;;13.95;100.00;100947.94;5048877;28;20094;-77
2023/08/04 02:11:58;;;;;;;21.42;7.20;;;;;;;13.95;100.00;100942.53;5048812;28;20021;-78
2023/08/04 02:14:23;;;;;;;21.40;7.55;;;;;;;13.98;100.00;100938.69;5047918;28;20035;-78
2023/08/04 02:16:49;;;;;;;20.02;6.93;;;;;;;13.97;100.00;100940.53;5050587;28;20029;-78
2023/08/04 02:19:14;;;;;;;19.88;7.13;;;;;;;13.96;100.00;100949.63;5050284;28;20769;-78
2023/08/04 02:21:39;;;;;;;16.92;6.35;;;;;;;13.94;100.00;100945.38;5049006;28;20504;-77
2023/08/04 02:24:08;;;;;;;23.00;7.20;;;;;;;13.96;100.00;100951.47;5050368;28;20354;-78
2023/08/04 02:26:33;;;;;;;19.13;6.38;;;;;;;13.93;100.00;100943.63;5042816;28;20035;-77
2023/08/04 02:28:58;;;;;;;20.95;6.97;;;;;;;13.89;100.00;100947.59;5049885;28;20021;-77
2023/08/04 02:31:27;;;;;;;19.63;7.03;;;;;;;13.81;100.00;100946.41;5049309;28;20025;-78
2023/08/04 02:33:53;;;;;;;24.08;6.60;;;;;;;13.80;100.00;100954.63;5044040;28;20064;-77
2023/08/04 02:36:19;;;;;;;20.63;7.38;;;;;;;13.82;100.00;100952.66;5048396;28;20043;-77
2023/08/04 02:38:45;;;;;;;20.48;6.93;;;;;;;13.83;100.00;100957.06;5048749;28;20796;-77
2023/08/04 02:41:10;;;;;;;21.13;7.05;;;;;;;13.83;100.00;100948.13;5046753;28;20111;-77
2023/08/04 02:43:36;;;;;;;21.30;7.32;;;;;;;13.82;100.00;100955.34;5046459;28;20025;-77
2023/08/04 02:46:02;;;;;;;20.45;6.43;;;;;;;13.82;100.00;100958.06;5049493;28;20103;-77
2023/08/04 02:48:28;;;;;;;23.15;6.72;;;;;;;13.83;100.00;100958.94;5049578;28;20452;-77
2023/08/04 02:51:08;;;;;;;22.83;6.25;;;;;;;13.84;100.00;100957.94;5048432;28;20052;-77
2023/08/04 02:53:33;;;;;;;;;;;;;;;13.84;100.00;100958.78;5048569;28;20063;-77
2023/08/04 02:55:59;;;;;;;21.67;8.00;;;;;;;13.82;100.00;100958.06;5048342;28;20328;-77
2023/08/04 02:58:26;;;;;;;21.63;6.95;;;;;;;13.77;100.00;100960.31;5049875;28;20345;-77
2023/08/04 03:00:53;;;;;;;21.30;7.18;;;;;;;13.74;100.00;100953.31;5042705;28;20020;-77
2023/08/04 03:03:19;;;;;;;20.20;7.22;;;;;;;13.74;100.00;100945.22;5050963;28;20175;-77
2023/08/04 03:05:47;;;;;;;20.10;6.97;;;;;;;13.75;100.00;100951.50;5051970;28;20124;-77
2023/08/04 03:08:12;;;;;;;19.55;6.85;;;;;;;13.73;100.00;100958.84;5052447;28;20050;-77
2023/08/04 03:10:41;;;;;;;21.73;6.63;;;;;;;13.72;100.00;100959.81;5053009;28;20124;-77
2023/08/04 03:13:07;;;;;;;21.23;6.85;;;;;;;13.70;100.00;100953.69;5050763;28;20104;-77
2023/08/04 03:15:33;;;;;;;22.48;7.40;;;;;;;13.69;100.00;100965.50;5052096;28;20032;-78
2023/08/04 03:17:58;;;;;;;22.10;6.78;;;;;;;13.70;100.00;100957.25;5053282;28;20443;-78
2023/08/04 03:20:24;;;;;;;24.40;7.05;;;;;;;13.69;100.00;100963.66;5053319;28;20428;-78
2023/08/04 03:22:49;;;;;;;21.92;6.60;;;;;;;13.70;100.00;100954.56;5052646;28;20021;-78
2023/08/04 03:25:14;;;;;;;18.73;5.63;;;;;;;13.71;100.00;100956.28;5053161;28;20051;-78
2023/08/04 03:27:40;;;;;;;23.30;6.97;;;;;;;13.73;100.00;100972.34;5052437;28;20441;-78
2023/08/04 03:30:08;;;;;;;16.35;6.97;;;;;;;13.74;100.00;100976.78;5055904;28;20052;-78
2023/08/04 03:32:34;;;;;;;17.77;6.43;;;;;;;13.77;100.00;100969.25;5047796;28;20143;-78
2023/08/04 03:34:59;;;;;;;25.48;6.72;;;;;;;13.84;100.00;100974.16;5050991;28;20396;-78
2023/08/04 03:37:24;;;;;;;21.05;7.00;;;;;;;13.82;100.00;100974.25;5050375;28;20033;-78
2023/08/04 03:39:50;;;;;;;19.45;6.18;;;;;;;13.79;100.00;100980.81;5052094;28;20440;-78
2023/08/04 03:42:15;;;;;;;17.95;5.95;;;;;;;13.82;100.00;100974.25;5053434;28;20122;-78
2023/08/04 03:44:40;;;;;;;18.65;6.10;;;;;;;13.81;100.00;100976.13;5050326;28;20029;-78
2023/08/04 03:47:08;;;;;;;20.55;6.38;;;;;;;13.81;100.00;100968.00;5051162;28;20120;-78
2023/08/04 03:49:33;;;;;;;19.60;6.93;;;;;;;13.80;100.00;100971.69;5049163;28;20028;-78
2023/08/04 03:51:59;;;;;;;18.50;6.05;;;;;;;13.78;100.00;100973.69;5052738;28;20025;-78
2023/08/04 03:54:24;;;;;;;20.45;7.30;;;;;;;13.72;100.00;100978.72;5051213;28;20032;-78
2023/08/04 03:56:49;;;;;;;20.73;6.25;;;;;;;13.73;100.00;100980.44;5051278;28;20051;-78
2023/08/04 03:59:14;;;;;;;17.40;5.93;;;;;;;13.70;100.00;100986.13;5050703;28;20419;-78
2023/08/04 04:01:40;;;;;;;21.92;6.72;;;;;;;13.70;100.00;100980.72;5051676;28;20036;-78
2023/08/04 04:04:08;;;;;;;17.45;6.45;;;;;;;13.66;100.00;100977.44;5048387;28;20048;-78
2023/08/04 04:06:33;;;;;;;21.17;6.68;;;;;;;13.66;100.00;100987.34;5050749;28;20167;-78
2023/08/04 04:08:59;;;;;;;19.17;6.03;;;;;;;13.64;100.00;100982.94;5052114;28;20056;-78
2023/08/04 04:11:24;;;;;;;17.90;5.85;;;;;;;13.63;100.00;100974.97;5051645;28;20033;-78
2023/08/04 04:13:49;;;;;;;20.42;6.72;;;;;;;13.63;100.00;100980.34;5050215;28;20032;-78
2023/08/04 04:16:15;;;;;;;23.30;7.43;;;;;;;13.61;100.00;100987.75;5049200;28;20503;-78
2023/08/04 04:18:40;;;;;;;19.00;6.78;;;;;;;13.60;100.00;100988.72;5048928;28;20218;-78
2023/08/04 04:21:05;;;;;;;20.02;6.00;;;;;;;13.54;100.00;100994.66;5051860;28;20090;-78
2023/08/04 04:23:31;;;;;;;20.88;6.75;;;;;;;13.52;100.00;100991.22;5052058;28;20077;-78
2023/08/04 04:25:56;;;;;;;21.95;7.25;;;;;;;13.52;100.00;100992.06;5051534;28;20029;-78
2023/08/04 04:28:21;;;;;;;18.55;6.28;;;;;;;13.50;100.00;100996.75;5049757;28;20476;-78
2023/08/04 04:30:47;;;;;;;19.92;5.88;;;;;;;13.51;100.00;101003.84;5050956;28;20356;-78
2023/08/04 04:33:12;;;;;;;18.85;5.85;;;;;;;13.48;100.00;101000.56;5050754;28;20028;-78
2023/08/04 04:35:37;;;;;;;19.45;6.13;;;;;;;13.48;100.00;100998.72;5049645;28;20445;-78
2023/08/04 04:38:03;;;;;;;20.98;7.13;;;;;;;13.50;100.00;101004.84;5050897;28;20046;-78
2023/08/04 04:40:28;;;;;;;18.63;6.50;;;;;;;13.46;100.00;101001.53;5050742;28;20028;-78
2023/08/04 04:42:53;;;;;;;19.75;6.30;;;;;;;13.46;100.00;101000.69;5050623;28;20036;-78
2023/08/04 04:45:19;;;;;;;20.30;6.20;;;;;;;13.48;100.00;101005.97;5049369;28;20036;-78
2023/08/04 04:47:44;;;;;;;22.00;6.72;;;;;;;13.46;100.00;101004.25;5050269;28;20488;-78
2023/08/04 04:50:09;;;;;;;20.63;7.22;;;;;;;13.48;100.00;101012.22;5050653;28;20456;-78
2023/08/04 04:52:37;;;;;;;24.73;8.07;;;;;;;13.50;100.00;101009.38;5050930;28;20028;-78
2023/08/04 04:55:03;;;;;;;20.77;7.28;;;;;;;13.52;100.00;101019.06;5050047;28;20024;-78
2023/08/04 04:57:29;;;;;;;22.67;7.65;;;;;;;13.56;100.00;101019.69;5049719;28;20028;-78
2023/08/04 04:59:55;;;;;;;18.38;6.97;;;;;;;13.56;100.00;101019.69;5050108;28;20044;-78
2023/08/04 05:02:20;;;;;;;15.52;5.72;;;;;;;13.58;100.00;101025.81;5049230;28;20032;-78
2023/08/04 05:04:46;;;;;;;22.23;6.80;;;;;;;13.59;100.00;101025.69;5048147;28;20044;-78
2023/08/04 05:07:11;;;;;;;22.88;7.60;;;;;;;13.62;100.00;101025.44;5048560;28;20049;-78
2023/08/04 05:09:38;;;;;;;19.88;7.57;;;;;;;13.64;100.00;101036.94;5048976;28;20455;-78
2023/08/04 05:12:04;;;;;;;21.70;7.10;;;;;;;13.74;100.00;101038.91;5049599;28;20063;-78
2023/08/04 05:14:29;;;;;;;19.42;7.15;;;;;;;13.78;100.00;101037.66;5049817;28;20068;-78
2023/08/04 05:16:54;;;;;;;21.08;7.10;;;;;;;13.85;100.00;101030.75;5049825;28;20441;-78
2023/08/04 05:19:20;;;;;;;19.88;6.47;;;;;;;13.90;100.00;101035.78;5050422;28;20098;-78
2023/08/04 05:21:45;;;;;;;22.38;7.10;;;;;;;13.98;100.00;101038.66;5049969;28;20037;-78
2023/08/04 05:24:11;;;;;;;22.40;7.38;;;;;;;13.99;100.00;101046.63;5049224;28;20111;-78
2023/08/04 05:26:37;;;;;;;22.15;7.95;;;;;;;14.07;100.00;101047.84;5050339;28;20032;-78
2023/08/04 05:29:02;;;;;;;23.92;8.07;;;;;;;14.14;100.00;101049.03;5050309;28;20033;-78
2023/08/04 05:31:27;;;;;;;22.02;7.35;;;;;;;14.20;100.00;101053.06;5049457;28;20040;-78
2023/08/04 05:33:54;;;;;;;23.52;8.52;;;;;;;14.24;100.00;101049.94;5047751;28;20499;-77
2023/08/04 05:36:20;;;;;;;20.83;7.70;;;;;;;14.31;100.00;101059.25;5043219;28;20116;-78
2023/08/04 05:38:45;;;;;;;21.02;8.13;;;;;;;14.34;100.00;101056.28;5053179;28;20563;-77
2023/08/04 05:41:10;;;;;;;21.25;7.63;;;;;;;14.40;100.00;101059.47;5050413;28;20025;-77
2023/08/04 05:43:36;;;;;;;22.23;8.43;;;;;;;14.46;100.00;101053.50;5053664;28;20052;-77
2023/08/04 05:46:02;;;;;;;20.90;8.10;;;;;;;14.49;100.00;101064.06;5054563;28;20035;-77
2023/08/04 05:48:32;;;;;;;23.83;8.80;;;;;;;14.56;100.00;101061.69;5055388;28;20460;-77
2023/08/04 05:50:57;;;;;;;22.23;7.90;;;;;;;14.59;100.00;101059.56;5049907;28;20029;-77
2023/08/04 05:53:22;;;;;;;23.33;7.97;;;;;;;14.66;100.00;101063.50;5054229;28;20101;-77
2023/08/04 05:55:47;;;;;;;23.08;8.02;;;;;;;14.70;100.00;101061.38;5063114;23;20029;-65
2023/08/04 05:58:13;;;;;;;22.30;8.38;;;;;;;14.74;100.00;101067.38;5094833;28;20032;-76
2023/08/04 06:00:38;;;;;;;21.55;8.43;;;;;;;14.79;100.00;101071.41;5089253;28;20052;-76
2023/08/04 06:03:06;;;;;;;21.55;7.43;;;;;;;14.84;100.00;101079.94;5099731;28;20023;-77
2023/08/04 06:05:32;;;;;;;24.65;8.02;;;;;;;14.89;100.00;101082.28;5111162;28;20035;-77
2023/08/04 06:07:57;;;;;;;20.83;7.50;;;;;;;14.95;100.00;101076.31;5110262;28;20032;-75
2023/08/04 06:10:22;;;;;;;20.83;8.02;;;;;;;15.00;100.00;101075.91;5106497;28;20016;-77
2023/08/04 06:12:49;;;;;;;22.23;7.78;;;;;;;15.05;100.00;101075.50;5114127;28;20016;-76
2023/08/04 06:15:14;;;;;;;21.58;7.72;;;;;;;15.11;100.00;101074.94;5105450;28;20028;-75
2023/08/04 06:17:40;;;;;;;25.08;8.48;;;;;;;15.17;100.00;101085.25;5102212;28;20071;-75
2023/08/04 06:20:07;;;;;;;23.27;7.70;;;;;;;15.24;100.00;101086.38;5108120;28;20461;-76
2023/08/04 06:22:33;;;;;;;21.85;9.07;;;;;;;15.30;100.00;101091.28;5114503;28;20016;-77
2023/08/04 06:24:58;;;;;;;20.15;7.63;;;;;;;15.38;100.00;101091.41;5104851;28;20087;-76
2023/08/04 06:27:24;;;;;;;25.58;8.18;;;;;;;15.49;100.00;101095.00;5106814;28;20031;-77
2023/08/04 06:29:49;;;;;;;24.23;7.55;;;;;;;15.56;100.00;101104.31;5089059;28;20028;-77
2023/08/04 06:32:14;;;;;;;20.52;7.15;;;;;;;15.63;100.00;101110.88;5084813;28;20020;-73
2023/08/04 06:34:40;;;;;;;19.38;5.50;;;;;;;15.67;100.00;101112.31;5090777;28;20471;-76
2023/08/04 06:37:05;;;;;;;19.65;6.10;;;;;;;15.71;100.00;101116.47;5120241;28;20028;-76
2023/08/04 06:39:31;;;;;;;20.73;7.22;;;;;;;15.77;100.00;101116.88;5126946;28;20081;-77
2023/08/04 06:41:56;;;;;;;19.80;7.82;;;;;;;15.84;100.00;101112.66;5115003;28;20047;-77
2023/08/04 06:44:21;;;;;;;24.85;7.82;;;;;;;15.87;100.00;101117.78;5090445;28;20059;-76
2023/08/04 06:46:47;;;;;;;20.83;7.55;;;;;;;15.90;100.00;101120.22;5112895;28;20039;-76
2023/08/04 06:49:12;;;;;;;20.85;7.10;;;;;;;15.98;100.00;101116.81;5115851;28;20094;-77
2023/08/04 06:51:37;;;;;;;21.33;7.20;;;;;;;16.03;100.00;101123.53;5106726;28;20096;-76
2023/08/04 06:54:03;;;;;;;27.15;8.50;;;;;;;16.10;100.00;101117.56;5115581;28;20029;-77
2023/08/04 06:56:28;;;;;;;20.25;6.28;;;;;;;16.17;100.00;101121.41;5118224;28;20028;-78
2023/08/04 06:58:53;;;;;;;20.73;7.55;;;;;;;16.23;100.00;101129.81;5107199;28;20009;-78
2023/08/04 07:01:19;;;;;;;18.88;6.50;;;;;;;16.24;100.00;101128.81;5123687;28;20024;-78
2023/08/04 07:03:45;;;;;;;21.85;7.88;;;;;;;16.27;100.00;101126.81;5128683;28;20036;-78
2023/08/04 07:06:11;;;;;;;24.83;7.10;;;;;;;16.29;100.00;101133.81;5119381;28;20016;-77
2023/08/04 07:08:36;;;;;;;22.83;7.40;;;;;;;16.31;100.00;101131.81;5128948;28;20023;-77
2023/08/04 07:11:01;;;;;;;21.80;7.47;;;;;;;16.33;100.00;101140.66;5137300;28;20016;-78
2023/08/04 07:13:29;;;;;;;21.55;8.43;;;;;;;16.38;100.00;101140.22;5128690;28;20027;-78
2023/08/04 07:15:55;;;;;;;20.63;7.82;;;;;;;16.43;100.00;101143.38;5128543;28;20032;-78
2023/08/04 07:18:21;;;;;;;21.00;7.63;;;;;;;16.42;100.00;101145.22;5133253;28;20044;-78
2023/08/04 07:20:46;;;;;;;23.67;8.25;;;;;;;16.46;100.00;101148.53;5130039;28;20027;-78
2023/08/04 07:23:11;;;;;;;22.63;7.47;;;;;;;16.52;100.00;101147.94;5131044;28;20028;-78
2023/08/04 07:25:37;;;;;;;23.00;6.80;;;;;;;16.55;100.00;101146.81;5127887;28;20031;-78
2023/08/04 07:28:03;;;;;;;21.38;6.80;;;;;;;16.58;100.00;101141.94;5119466;28;20084;-78
2023/08/04 07:30:29;;;;;;;20.48;6.88;;;;;;;16.62;100.00;101147.06;5132570;28;20045;-78
2023/08/04 07:32:54;;;;;;;18.20;6.65;;;;;;;16.64;100.00;101150.50;5133084;28;20027;-78
2023/08/04 07:35:20;;;;;;;20.13;6.47;;;;;;;16.68;100.00;101152.78;5122469;28;20032;-78
2023/08/04 07:37:45;;;;;;;19.48;6.07;;;;;;;16.70;100.00;101144.50;5127795;28;20098;-78
2023/08/04 07:40:11;;;;;;;20.33;6.78;;;;;;;16.72;100.00;101151.50;5129356;28;20062;-78
2023/08/04 07:42:37;;;;;;;16.48;5.25;;;;;;;16.75;100.00;101153.03;5130962;28;20039;-78
2023/08/04 07:45:02;;;;;;;17.38;5.85;;;;;;;16.73;100.00;101153.19;5126626;28;20045;-77
2023/08/04 07:47:28;;;;;;;18.42;6.05;;;;;;;16.74;100.00;101157.63;5119882;28;20004;-77
2023/08/04 07:49:53;;;;;;;19.52;6.90;;;;;;;16.73;100.00;101158.63;5130505;28;20024;-78
2023/08/04 07:52:18;;;;;;;20.25;5.85;;;;;;;16.71;100.00;101152.47;5131260;28;20022;-78
2023/08/04 07:54:43;;;;;;;16.88;5.22;;;;;;;16.73;100.00;101155.06;5124492;28;20020;-78
2023/08/04 07:57:09;;;;;;;16.60;5.00;;;;;;;16.73;100.00;101164.03;5131080;28;20042;-78
2023/08/04 07:59:34;;;;;;;18.92;5.65;;;;;;;16.74;100.00;101163.03;5132443;28;20055;-78
2023/08/04 08:01:59;;;;;;;17.45;5.30;;;;;;;16.78;100.00;101164.47;5129400;28;20019;-77
2023/08/04 08:04:25;;;;;;;15.20;4.68;;;;;;;16.81;100.00;101165.16;5117827;28;20023;-77
2023/08/04 08:06:50;;;;;;;18.40;5.78;;;;;;;16.85;100.00;101174.75;5127573;28;20031;-78
2023/08/04 08:09:15;;;;;;;17.13;5.22;;;;;;;16.85;100.00;101170.19;5118264;28;20015;-78
2023/08/04 08:11:40;;;;;;;21.60;6.15;;;;;;;16.87;100.00;101170.03;5124516;28;20008;-77
2023/08/04 08:14:06;;;;;;;15.05;4.55;;;;;;;16.88;100.00;101174.47;5130622;28;20024;-77
2023/08/04 08:16:31;;;;;;;14.30;4.28;;;;;;;16.90;100.00;101175.22;5126273;28;20012;-77
2023/08/04 08:18:56;;;;;;;19.60;4.68;;;;;;;16.92;100.00;101171.31;5117887;28;20016;-77
2023/08/04 08:21:22;;;;;;;18.65;4.63;;;;;;;17.01;100.00;101168.75;5118288;28;20011;-77
2023/08/04 08:23:47;;;;;;;13.18;4.20;;;;;;;17.09;100.00;101171.59;5129702;28;20037;-78
2023/08/04 08:26:12;;;;;;;14.43;4.15;;;;;;;17.16;100.00;101180.88;5127573;28;20032;-77
2023/08/04 08:28:38;;;;;;;14.23;4.30;;;;;;;17.24;100.00;101183.69;5126952;28;20011;-77
2023/08/04 08:31:04;;;;;;;17.88;5.10;;;;;;;17.30;100.00;101188.50;5119165;28;20038;-77
2023/08/04 08:33:29;;;;;;;16.75;5.03;;;;;;;17.26;100.00;101187.13;5130921;28;20016;-76
2023/08/04 08:35:55;;;;;;;14.70;3.92;;;;;;;17.31;100.00;101189.38;5130988;28;20038;-77
2023/08/04 08:38:20;;;;;;;11.35;3.70;;;;;;;17.34;100.00;101197.25;5131754;28;20047;-77
2023/08/04 08:40:49;;;;;;;11.50;3.80;;;;;;;17.37;100.00;101196.94;5127144;28;20004;-76
2023/08/04 08:43:15;;;;;;;11.13;4.10;;;;;;;17.37;100.00;101198.81;5128177;28;20036;-77
2023/08/04 08:45:43;;;;;;;16.23;5.25;;;;;;;17.36;100.00;101200.66;5119025;28;20291;-77
2023/08/04 08:48:10;;;;;;;15.82;4.60;;;;;;;17.36;100.00;101199.81;5118537;28;20008;-78
2023/08/04 08:50:38;;;;;;;16.70;5.18;;;;;;;17.33;100.00;101206.38;5119514;28;20067;-76
2023/08/04 08:53:11;;;;;;;11.73;4.25;;;;;;;17.34;100.00;101207.25;5125708;28;20046;-77
2023/08/04 08:55:39;;;;;;;15.85;5.30;;;;;;;17.34;100.00;101209.97;5124625;28;20050;-76
2023/08/04 08:58:05;;;;;;;15.60;4.72;;;;;;;17.40;100.00;101207.50;5118544;28;20538;-76
2023/08/04 09:00:31;;;;;;;15.00;5.55;;;;;;;17.51;100.00;101205.59;5127129;28;20040;-76
2023/08/04 09:02:57;;;;;;;13.65;4.80;;;;;;;17.55;100.00;101207.88;5129583;28;20048;-77
2023/08/04 09:05:23;;;;;;;14.65;5.00;;;;;;;17.59;100.00;101203.00;5124341;28;20098;-75
2023/08/04 09:07:49;;;;;;;13.75;4.28;;;;;;;17.62;100.00;101209.00;5108051;28;20032;-80
2023/08/04 09:10:14;;;;;;;14.07;3.85;;;;;;;17.72;100.00;101216.25;5099846;28;20379;-80
2023/08/04 09:12:41;;;;;;;10.95;4.30;;;;;;;17.77;100.00;101208.50;5094562;28;20031;-80
2023/08/04 09:15:07;;;;;;;13.25;4.55;;;;;;;17.76;100.00;101218.53;5102310;28;20035;-81
2023/08/04 09:17:34;;;;;;;17.45;4.47;;;;;;;17.74;100.00;101222.41;5091259;28;20032;-80
2023/08/04 09:20:02;;;;;;;12.85;4.40;;;;;;;17.67;100.00;101224.00;5091439;28;20115;-80
2023/08/04 09:22:28;;;;;;;13.40;4.38;;;;;;;17.62;100.00;101224.44;5099271;28;20059;-80
2023/08/04 09:25:03;;;;;;;15.23;3.97;;;;;;;17.58;100.00;101229.31;5090980;28;20552;-80
2023/08/04 09:27:34;;;;;;;13.57;4.38;;;;;;;17.54;100.00;101224.31;5092570;28;20039;-80
2023/08/04 09:30:02;;;;;;;10.05;3.08;;;;;;;17.56;100.00;101233.22;5101481;28;20412;-80
2023/08/04 09:32:28;;;;;;;6.68;3.00;;;;;;;17.56;100.00;101233.22;5092053;28;20106;-80
2023/08/04 09:35:05;;;;;;;9.52;3.20;;;;;;;17.63;100.00;101220.75;5103929;28;20110;-79
2023/08/04 09:37:32;;;;;;;7.05;3.30;;;;;;;17.70;100.00;101226.41;5094369;28;20028;-80
2023/08/04 09:39:58;;;;;;;11.70;3.35;;;;;;;17.76;100.00;101226.69;5092687;28;20164;-80
2023/08/04 09:42:23;;;;;;;11.05;3.40;;;;;;;17.80;100.00;101233.53;5091307;28;20094;-80
2023/08/04 09:44:53;;;;;;;12.80;4.00;;;;;;;17.88;100.00;101234.63;5099066;28;20035;-80
2023/08/04 09:47:25;;;;;;;;;;;;;;;17.98;100.00;101230.88;5101352;28;20059;-80
2023/08/04 09:49:51;;;;;;;8.13;3.13;;;;;;;18.03;100.00;101235.03;5099942;28;19930;-80
2023/08/04 09:52:24;;;;;;;12.90;3.60;;;;;;;18.10;100.00;101231.53;5100849;28;20058;-80
2023/08/04 09:54:55;;;;;;;10.77;3.53;;;;;;;18.16;100.00;101225.47;5089540;28;20030;-80
2023/08/04 09:57:22;;;;;;;11.63;3.55;;;;;;;18.22;100.00;101228.59;5103818;28;20136;-80
2023/08/04 09:59:51;;;;;;;9.15;3.25;;;;;;;18.27;100.00;101232.59;5094040;28;20032;-80
2023/08/04 10:02:18;;;;;;;11.02;3.00;;;;;;;18.29;100.00;101226.97;5103857;28;20616;-80
2023/08/04 10:04:49;;;;;;;11.27;3.47;;;;;;;18.27;100.00;101231.72;5103373;28;20409;-80
2023/08/04 10:07:16;;;;;;;11.18;3.35;;;;;;;18.25;100.00;101228.28;5091727;28;20023;-79
2023/08/04 10:09:43;;;;;;;11.77;3.28;;;;;;;18.20;100.00;101238.78;5089870;28;20035;-80
2023/08/04 10:12:09;;;;;;;9.85;3.00;;;;;;;18.07;100.00;101244.56;5102266;28;20024;-80
2023/08/04 10:14:35;;;;;;;12.75;2.92;;;;;;;17.97;100.00;101247.34;5095947;28;20176;-80
2023/08/04 10:17:01;;;;;;;6.65;2.75;;;;;;;17.87;100.00;101250.09;5101642;28;20482;-79
2023/08/04 10:19:28;;;;;;;8.13;3.05;;;;;;;17.76;100.00;101240.28;5125339;28;20043;-75
2023/08/04 10:21:53;;;;;;;7.90;3.00;;;;;;;17.74;100.00;101239.56;5128898;28;20043;-77
2023/08/04 10:24:20;;;;;;;10.10;3.50;;;;;;;17.71;100.00;101237.13;5126651;28;20071;-77
2023/08/04 10:26:51;;;;;;;8.57;2.72;;;;;;;17.75;100.00;101233.13;5129934;28;20024;-77
2023/08/04 10:29:18;;;;;;;7.07;3.28;;;;;;;17.86;100.00;101234.78;5128154;28;20011;-77
2023/08/04 10:31:47;;;;;;;10.40;3.20;;;;;;;17.96;100.00;101234.75;5117559;28;20008;-76
2023/08/04 10:34:42;;;;;;;10.07;3.03;;;;;;;18.12;100.00;101240.38;5117459;28;20020;-77
2023/08/04 10:37:12;;;;;;;11.70;3.38;;;;;;;18.27;100.00;101239.88;5116463;28;20020;-77
2023/08/04 10:39:56;;;;;;;9.07;3.20;;;;;;;18.38;100.00;101239.66;5126346;28;20137;-77
2023/08/04 10:42:23;;;;;;;11.60;2.95;;;;;;;18.49;100.00;101242.16;5126976;28;20016;-77
2023/08/04 10:45:06;;;;;;;8.02;2.97;;;;;;;18.59;100.00;101249.38;5125101;28;20008;-77
2023/08/04 10:47:44;;;;;;;10.95;3.15;;;;;;;18.59;100.00;101252.94;5126932;28;20020;-77
2023/08/04 10:50:10;;;;;;;10.90;3.35;;;;;;;18.61;100.00;101250.94;5120189;28;20004;-75
2023/08/04 10:52:37;;;;;;;12.15;3.38;;;;;;;18.58;100.00;101251.25;5126979;28;20088;-77
2023/08/04 10:55:04;;;;;;;10.35;3.38;;;;;;;18.56;100.00;101257.88;5122270;28;20031;-77
2023/08/04 10:57:33;;;;;;;11.93;3.28;;;;;;;18.55;100.00;101258.88;5125976;28;20100;-75
2023/08/04 11:00:05;;;;;;;11.25;3.30;;;;;;;18.55;100.00;101261.59;5128914;28;20034;-77
2023/08/04 11:02:31;;;;;;;15.30;3.88;;;;;;;18.57;100.00;101254.13;5121225;28;20116;-76
2023/08/04 11:04:56;;;;;;;11.90;3.92;;;;;;;18.62;100.00;101262.69;5118164;28;20028;-77